sensor_id;sensor_type;location;lat;lon;timestamp;P1;P2;P0
46381;PMS5003;66809;52.974;-2.514;2023-09-18T00:01:40;38.68333333333333;36.95;
46381;PMS5003;66809;52.974;-2.514;2023-09-18T00:03:39;38.63333333333333;36.983333333333334;
46381;PMS5003;66809;52.974;-2.514;2023-09-18T00:05:40;38.95;37.25;
46381;PMS5003;66809;52.974;-2.514;2023-09-18T00:07:39;38.916666666666664;37.18333333333333;
46381;PMS5003;66809;52.974;-2.514;2023-09-18T00:09:39;39.21666666666667;37.46666666666667;
46381;PMS5003;66809;52.974;-2.514;2023-09-18T00:11:40;39.18333333333333;37.35;
46381;PMS5003;66809;52.974;-2.514;2023-09-18T00:13:39;39.13333333333333;37.333333333333336;
46381;PMS5003;66809;52.974;-2.514;2023-09-18T00:15:40;39.0;37.11666666666667;
46381;PMS5003;66809;52.974;-2.514;2023-09-18T00:17:39;39.2;37.28333333333333;
46381;PMS5003;66809;52.974;-2.514;2023-09-18T00:19:39;39.0;37.06666666666667;
46381;PMS5003;66809;52.974;-2.514;2023-09-18T00:21:40;39.016666666666666;37.15;
46381;PMS5003;66809;52.974;-2.514;2023-09-18T00:23:39;38.86666666666667;37.0;
46381;PMS5003;66809;52.974;-2.514;2023-09-18T00:25:40;38.56666666666667;36.63333333333333;
46381;PMS5003;66809;52.974;-2.514;2023-09-18T00:27:39;38.4;36.45;
46381;PMS5003;66809;52.974;-2.514;2023-09-18T00:29:40;37.85;35.93333333333333;
46381;PMS5003;66809;52.974;-2.514;2023-09-18T00:31:40;37.583333333333336;35.68333333333333;
46381;PMS5003;66809;52.974;-2.514;2023-09-18T00:33:39;37.63333333333333;35.666666666666664;
46381;PMS5003;66809;52.974;-2.514;2023-09-18T00:35:40;37.1;35.166666666666664;
46381;PMS5003;66809;52.974;-2.514;2023-09-18T00:37:39;36.78333333333333;34.85;
46381;PMS5003;66809;52.974;-2.514;2023-09-18T00:39:41;36.18333333333333;34.3;
46381;PMS5003;66809;52.974;-2.514;2023-09-18T00:41:39;36.53333333333333;34.63333333333333;
46381;PMS5003;66809;52.974;-2.514;2023-09-18T00:43:40;36.28333333333333;34.45;
46381;PMS5003;66809;52.974;-2.514;2023-09-18T00:45:40;36.083333333333336;34.266666666666666;
46381;PMS5003;66809;52.974;-2.514;2023-09-18T00:47:40;35.93333333333333;34.06666666666667;
46381;PMS5003;66809;52.974;-2.514;2023-09-18T00:49:40;36.06666666666667;34.13333333333333;
46381;PMS5003;66809;52.974;-2.514;2023-09-18T00:51:40;35.81666666666667;33.96666666666667;
46381;PMS5003;66809;52.974;-2.514;2023-09-18T00:53:41;35.666666666666664;33.8;
46381;PMS5003;66809;52.974;-2.514;2023-09-18T00:55:39;35.65;33.75;
46381;PMS5003;66809;52.974;-2.514;2023-09-18T00:57:39;35.483333333333334;33.583333333333336;
46381;PMS5003;66809;52.974;-2.514;2023-09-18T00:59:40;35.31666666666667;33.4;
46381;PMS5003;66809;52.974;-2.514;2023-09-18T01:01:40;34.81666666666667;32.95;
46381;PMS5003;66809;52.974;-2.514;2023-09-18T01:03:40;34.53333333333333;32.61666666666667;
46381;PMS5003;66809;52.974;-2.514;2023-09-18T01:05:39;34.15;32.333333333333336;
46381;PMS5003;66809;52.974;-2.514;2023-09-18T01:07:40;33.766666666666666;31.966666666666665;
46381;PMS5003;66809;52.974;-2.514;2023-09-18T01:09:40;33.2;31.4;
46381;PMS5003;66809;52.974;-2.514;2023-09-18T01:11:42;32.833333333333336;31.133333333333333;
46381;PMS5003;66809;52.974;-2.514;2023-09-18T01:13:41;32.083333333333336;30.433333333333334;
46381;PMS5003;66809;52.974;-2.514;2023-09-18T01:15:40;31.616666666666667;30.016666666666666;
46381;PMS5003;66809;52.974;-2.514;2023-09-18T01:17:40;30.966666666666665;29.45;
46381;PMS5003;66809;52.974;-2.514;2023-09-18T01:19:40;30.383333333333333;28.883333333333333;
46381;PMS5003;66809;52.974;-2.514;2023-09-18T01:21:40;29.566666666666666;28.1;
46381;PMS5003;66809;52.974;-2.514;2023-09-18T01:23:39;29.266666666666666;27.8;
46381;PMS5003;66809;52.974;-2.514;2023-09-18T01:25:40;28.7;27.35;
46381;PMS5003;66809;52.974;-2.514;2023-09-18T01:27:40;28.866666666666667;27.583333333333332;
46381;PMS5003;66809;52.974;-2.514;2023-09-18T01:29:39;28.966666666666665;27.7;
46381;PMS5003;66809;52.974;-2.514;2023-09-18T01:31:40;28.983333333333334;27.716666666666665;
46381;PMS5003;66809;52.974;-2.514;2023-09-18T01:33:39;28.783333333333335;27.533333333333335;
46381;PMS5003;66809;52.974;-2.514;2023-09-18T01:35:40;29.083333333333332;27.766666666666666;
46381;PMS5003;66809;52.974;-2.514;2023-09-18T01:37:39;29.466666666666665;28.15;
46381;PMS5003;66809;52.974;-2.514;2023-09-18T01:39:40;29.683333333333334;28.366666666666667;
46381;PMS5003;66809;52.974;-2.514;2023-09-18T01:41:39;29.75;28.45;
46381;PMS5003;66809;52.974;-2.514;2023-09-18T01:43:40;29.633333333333333;28.266666666666666;
46381;PMS5003;66809;52.974;-2.514;2023-09-18T01:45:40;29.516666666666666;28.166666666666668;
46381;PMS5003;66809;52.974;-2.514;2023-09-18T01:47:39;29.6;28.233333333333334;
46381;PMS5003;66809;52.974;-2.514;2023-09-18T01:49:39;29.533333333333335;28.2;
46381;PMS5003;66809;52.974;-2.514;2023-09-18T01:51:39;29.433333333333334;28.066666666666666;
46381;PMS5003;66809;52.974;-2.514;2023-09-18T01:53:40;29.266666666666666;27.95;
46381;PMS5003;66809;52.974;-2.514;2023-09-18T01:55:39;29.233333333333334;27.9;
46381;PMS5003;66809;52.974;-2.514;2023-09-18T01:57:40;29.333333333333332;27.983333333333334;
46381;PMS5003;66809;52.974;-2.514;2023-09-18T01:59:40;29.4;28.033333333333335;
46381;PMS5003;66809;52.974;-2.514;2023-09-18T02:01:39;29.45;28.05;
46381;PMS5003;66809;52.974;-2.514;2023-09-18T02:03:39;29.466666666666665;28.083333333333332;
46381;PMS5003;66809;52.974;-2.514;2023-09-18T02:05:40;29.283333333333335;27.833333333333332;
46381;PMS5003;66809;52.974;-2.514;2023-09-18T02:07:39;29.333333333333332;27.85;
46381;PMS5003;66809;52.974;-2.514;2023-09-18T02:09:40;29.1;27.65;
46381;PMS5003;66809;52.974;-2.514;2023-09-18T02:11:40;28.9;27.45;
46381;PMS5003;66809;52.974;-2.514;2023-09-18T02:13:39;29.116666666666667;27.65;
46381;PMS5003;66809;52.974;-2.514;2023-09-18T02:15:40;29.133333333333333;27.683333333333334;
46381;PMS5003;66809;52.974;-2.514;2023-09-18T02:17:39;29.033333333333335;27.566666666666666;
46381;PMS5003;66809;52.974;-2.514;2023-09-18T02:19:40;29.05;27.533333333333335;
46381;PMS5003;66809;52.974;-2.514;2023-09-18T02:21:40;29.3;27.733333333333334;
46381;PMS5003;66809;52.974;-2.514;2023-09-18T02:23:40;29.366666666666667;27.816666666666666;
46381;PMS5003;66809;52.974;-2.514;2023-09-18T02:25:39;29.6;28.033333333333335;
46381;PMS5003;66809;52.974;-2.514;2023-09-18T02:27:39;29.4;27.8;
46381;PMS5003;66809;52.974;-2.514;2023-09-18T02:29:40;29.316666666666666;27.7;
46381;PMS5003;66809;52.974;-2.514;2023-09-18T02:31:39;29.583333333333332;27.95;
46381;PMS5003;66809;52.974;-2.514;2023-09-18T02:33:40;29.683333333333334;28.116666666666667;
46381;PMS5003;66809;52.974;-2.514;2023-09-18T02:35:40;29.55;28.033333333333335;
46381;PMS5003;66809;52.974;-2.514;2023-09-18T02:37:40;29.133333333333333;27.633333333333333;
46381;PMS5003;66809;52.974;-2.514;2023-09-18T02:39:39;28.916666666666668;27.4;
46381;PMS5003;66809;52.974;-2.514;2023-09-18T02:41:40;28.466666666666665;27.0;
46381;PMS5003;66809;52.974;-2.514;2023-09-18T02:43:40;28.116666666666667;26.666666666666668;
46381;PMS5003;66809;52.974;-2.514;2023-09-18T02:45:39;27.833333333333332;26.416666666666668;
46381;PMS5003;66809;52.974;-2.514;2023-09-18T02:47:40;27.166666666666668;25.833333333333332;
46381;PMS5003;66809;52.974;-2.514;2023-09-18T02:49:39;26.6;25.316666666666666;
46381;PMS5003;66809;52.974;-2.514;2023-09-18T02:51:40;26.2;24.883333333333333;
46381;PMS5003;66809;52.974;-2.514;2023-09-18T02:53:40;25.783333333333335;24.466666666666665;
46381;PMS5003;66809;52.974;-2.514;2023-09-18T02:55:39;25.3;24.016666666666666;
46381;PMS5003;66809;52.974;-2.514;2023-09-18T02:57:40;25.016666666666666;23.75;
46381;PMS5003;66809;52.974;-2.514;2023-09-18T02:59:39;24.9;23.666666666666668;
46381;PMS5003;66809;52.974;-2.514;2023-09-18T03:01:40;24.65;23.45;
46381;PMS5003;66809;52.974;-2.514;2023-09-18T03:03:39;24.366666666666667;23.15;
46381;PMS5003;66809;52.974;-2.514;2023-09-18T03:05:39;24.366666666666667;23.183333333333334;
46381;PMS5003;66809;52.974;-2.514;2023-09-18T03:07:40;24.45;23.2;
46381;PMS5003;66809;52.974;-2.514;2023-09-18T03:09:39;24.716666666666665;23.416666666666668;
46381;PMS5003;66809;52.974;-2.514;2023-09-18T03:11:40;24.75;23.433333333333334;
46381;PMS5003;66809;52.974;-2.514;2023-09-18T03:13:42;24.533333333333335;23.266666666666666;
46381;PMS5003;66809;52.974;-2.514;2023-09-18T03:15:40;24.4;23.166666666666668;
46381;PMS5003;66809;52.974;-2.514;2023-09-18T03:17:40;24.683333333333334;23.4;
46381;PMS5003;66809;52.974;-2.514;2023-09-18T03:19:39;24.65;23.4;
46381;PMS5003;66809;52.974;-2.514;2023-09-18T03:21:40;24.533333333333335;23.266666666666666;
46381;PMS5003;66809;52.974;-2.514;2023-09-18T03:23:39;24.283333333333335;22.966666666666665;
46381;PMS5003;66809;52.974;-2.514;2023-09-18T03:25:40;24.15;22.85;
46381;PMS5003;66809;52.974;-2.514;2023-09-18T03:27:40;23.766666666666666;22.5;
46381;PMS5003;66809;52.974;-2.514;2023-09-18T03:29:39;23.45;22.216666666666665;
46381;PMS5003;66809;52.974;-2.514;2023-09-18T03:31:40;23.15;21.966666666666665;
46381;PMS5003;66809;52.974;-2.514;2023-09-18T03:33:39;22.983333333333334;21.766666666666666;
46381;PMS5003;66809;52.974;-2.514;2023-09-18T03:35:47;22.533333333333335;21.333333333333332;
46381;PMS5003;66809;52.974;-2.514;2023-09-18T03:37:39;22.3;21.133333333333333;
46381;PMS5003;66809;52.974;-2.514;2023-09-18T03:39:40;22.133333333333333;20.966666666666665;
46381;PMS5003;66809;52.974;-2.514;2023-09-18T03:41:39;22.183333333333334;21.016666666666666;
46381;PMS5003;66809;52.974;-2.514;2023-09-18T03:43:40;21.983333333333334;20.883333333333333;
46381;PMS5003;66809;52.974;-2.514;2023-09-18T03:45:39;21.9;20.783333333333335;
46381;PMS5003;66809;52.974;-2.514;2023-09-18T03:47:40;21.8;20.6;
46381;PMS5003;66809;52.974;-2.514;2023-09-18T03:49:39;21.95;20.716666666666665;
46381;PMS5003;66809;52.974;-2.514;2023-09-18T03:51:40;22.216666666666665;21.0;
46381;PMS5003;66809;52.974;-2.514;2023-09-18T03:53:39;22.283333333333335;21.066666666666666;
46381;PMS5003;66809;52.974;-2.514;2023-09-18T03:55:39;22.416666666666668;21.233333333333334;
46381;PMS5003;66809;52.974;-2.514;2023-09-18T03:57:41;22.316666666666666;21.15;
46381;PMS5003;66809;52.974;-2.514;2023-09-18T03:59:39;22.05;20.866666666666667;
46381;PMS5003;66809;52.974;-2.514;2023-09-18T04:01:40;21.9;20.733333333333334;
46381;PMS5003;66809;52.974;-2.514;2023-09-18T04:03:40;21.8;20.633333333333333;
46381;PMS5003;66809;52.974;-2.514;2023-09-18T04:05:39;21.25;20.133333333333333;
46381;PMS5003;66809;52.974;-2.514;2023-09-18T04:07:40;20.8;19.8;
46381;PMS5003;66809;52.974;-2.514;2023-09-18T04:09:40;20.366666666666667;19.433333333333334;
46381;PMS5003;66809;52.974;-2.514;2023-09-18T04:11:39;20.35;19.4;
46381;PMS5003;66809;52.974;-2.514;2023-09-18T04:13:40;20.433333333333334;19.433333333333334;
46381;PMS5003;66809;52.974;-2.514;2023-09-18T04:15:39;20.35;19.366666666666667;
46381;PMS5003;66809;52.974;-2.514;2023-09-18T04:17:40;19.966666666666665;18.983333333333334;
46381;PMS5003;66809;52.974;-2.514;2023-09-18T04:19:39;19.85;18.916666666666668;
46381;PMS5003;66809;52.974;-2.514;2023-09-18T04:21:39;19.766666666666666;18.85;
46381;PMS5003;66809;52.974;-2.514;2023-09-18T04:23:40;19.65;18.766666666666666;
46381;PMS5003;66809;52.974;-2.514;2023-09-18T04:25:40;19.45;18.533333333333335;
46381;PMS5003;66809;52.974;-2.514;2023-09-18T04:27:39;19.5;18.566666666666666;
46381;PMS5003;66809;52.974;-2.514;2023-09-18T04:29:40;19.4;18.483333333333334;
46381;PMS5003;66809;52.974;-2.514;2023-09-18T04:31:39;19.183333333333334;18.233333333333334;
46381;PMS5003;66809;52.974;-2.514;2023-09-18T04:33:40;18.933333333333334;18.033333333333335;
46381;PMS5003;66809;52.974;-2.514;2023-09-18T04:35:40;19.066666666666666;18.15;
46381;PMS5003;66809;52.974;-2.514;2023-09-18T04:37:40;19.033333333333335;18.1;
46381;PMS5003;66809;52.974;-2.514;2023-09-18T04:39:39;18.9;17.983333333333334;
46381;PMS5003;66809;52.974;-2.514;2023-09-18T04:41:40;18.466666666666665;17.55;
46381;PMS5003;66809;52.974;-2.514;2023-09-18T04:43:39;18.233333333333334;17.316666666666666;
46381;PMS5003;66809;52.974;-2.514;2023-09-18T04:45:39;18.033333333333335;17.133333333333333;
46381;PMS5003;66809;52.974;-2.514;2023-09-18T04:47:39;17.916666666666668;17.066666666666666;
46381;PMS5003;66809;52.974;-2.514;2023-09-18T04:49:40;17.55;16.733333333333334;
46381;PMS5003;66809;52.974;-2.514;2023-09-18T04:51:39;17.116666666666667;16.333333333333332;
46381;PMS5003;66809;52.974;-2.514;2023-09-18T04:53:40;16.916666666666668;16.166666666666668;
46381;PMS5003;66809;52.974;-2.514;2023-09-18T04:55:39;16.733333333333334;15.916666666666666;
46381;PMS5003;66809;52.974;-2.514;2023-09-18T04:57:40;16.683333333333334;15.833333333333334;
46381;PMS5003;66809;52.974;-2.514;2023-09-18T04:59:39;16.5;15.666666666666666;
46381;PMS5003;66809;52.974;-2.514;2023-09-18T05:01:40;16.2;15.383333333333333;
46381;PMS5003;66809;52.974;-2.514;2023-09-18T05:03:40;15.833333333333334;15.066666666666666;
46381;PMS5003;66809;52.974;-2.514;2023-09-18T05:05:39;15.75;14.9;
46381;PMS5003;66809;52.974;-2.514;2023-09-18T05:07:40;15.516666666666667;14.65;
46381;PMS5003;66809;52.974;-2.514;2023-09-18T05:09:39;15.283333333333333;14.4;
46381;PMS5003;66809;52.974;-2.514;2023-09-18T05:11:40;14.95;14.083333333333334;
46381;PMS5003;66809;52.974;-2.514;2023-09-18T05:13:40;14.483333333333333;13.7;
46381;PMS5003;66809;52.974;-2.514;2023-09-18T05:15:39;14.2;13.383333333333333;
46381;PMS5003;66809;52.974;-2.514;2023-09-18T05:17:41;14.033333333333333;13.283333333333333;
46381;PMS5003;66809;52.974;-2.514;2023-09-18T05:19:39;13.816666666666666;13.033333333333333;
46381;PMS5003;66809;52.974;-2.514;2023-09-18T05:21:40;13.583333333333334;12.816666666666666;
46381;PMS5003;66809;52.974;-2.514;2023-09-18T05:23:39;13.45;12.7;
46381;PMS5003;66809;52.974;-2.514;2023-09-18T05:25:41;13.35;12.6;
46381;PMS5003;66809;52.974;-2.514;2023-09-18T05:27:40;13.183333333333334;12.433333333333334;
46381;PMS5003;66809;52.974;-2.514;2023-09-18T05:29:39;13.016666666666667;12.266666666666667;
46381;PMS5003;66809;52.974;-2.514;2023-09-18T05:31:39;12.833333333333334;12.116666666666667;
46381;PMS5003;66809;52.974;-2.514;2023-09-18T05:33:40;12.733333333333333;11.95;
46381;PMS5003;66809;52.974;-2.514;2023-09-18T05:35:40;12.566666666666666;11.783333333333333;
46381;PMS5003;66809;52.974;-2.514;2023-09-18T05:37:40;12.483333333333333;11.7;
46381;PMS5003;66809;52.974;-2.514;2023-09-18T05:39:39;12.3;11.516666666666667;
46381;PMS5003;66809;52.974;-2.514;2023-09-18T05:41:40;12.266666666666667;11.483333333333333;
46381;PMS5003;66809;52.974;-2.514;2023-09-18T05:43:40;12.333333333333334;11.533333333333333;
46381;PMS5003;66809;52.974;-2.514;2023-09-18T05:45:39;12.233333333333333;11.433333333333334;
46381;PMS5003;66809;52.974;-2.514;2023-09-18T05:47:39;12.25;11.5;
46381;PMS5003;66809;52.974;-2.514;2023-09-18T05:49:39;12.283333333333333;11.483333333333333;
46381;PMS5003;66809;52.974;-2.514;2023-09-18T05:51:40;12.166666666666666;11.4;
46381;PMS5003;66809;52.974;-2.514;2023-09-18T05:53:39;11.966666666666667;11.2;
46381;PMS5003;66809;52.974;-2.514;2023-09-18T05:55:39;11.866666666666667;11.15;
46381;PMS5003;66809;52.974;-2.514;2023-09-18T05:57:40;11.633333333333333;10.933333333333334;
46381;PMS5003;66809;52.974;-2.514;2023-09-18T05:59:40;11.6;10.866666666666667;
46381;PMS5003;66809;52.974;-2.514;2023-09-18T06:01:39;11.616666666666667;10.866666666666667;
46381;PMS5003;66809;52.974;-2.514;2023-09-18T06:03:40;11.716666666666667;10.966666666666667;
46381;PMS5003;66809;52.974;-2.514;2023-09-18T06:05:40;11.733333333333333;11.05;
46381;PMS5003;66809;52.974;-2.514;2023-09-18T06:07:39;11.683333333333334;11.0;
46381;PMS5003;66809;52.974;-2.514;2023-09-18T06:09:40;11.783333333333333;11.083333333333334;
46381;PMS5003;66809;52.974;-2.514;2023-09-18T06:11:39;11.766666666666667;11.066666666666666;
46381;PMS5003;66809;52.974;-2.514;2023-09-18T06:13:39;11.816666666666666;11.116666666666667;
46381;PMS5003;66809;52.974;-2.514;2023-09-18T06:15:40;11.783333333333333;11.1;
46381;PMS5003;66809;52.974;-2.514;2023-09-18T06:17:40;11.733333333333333;11.05;
46381;PMS5003;66809;52.974;-2.514;2023-09-18T06:19:39;11.7;11.05;
46381;PMS5003;66809;52.974;-2.514;2023-09-18T06:21:40;11.633333333333333;11.0;
46381;PMS5003;66809;52.974;-2.514;2023-09-18T06:23:39;11.633333333333333;11.016666666666667;
46381;PMS5003;66809;52.974;-2.514;2023-09-18T06:25:40;11.6;11.0;
46381;PMS5003;66809;52.974;-2.514;2023-09-18T06:27:40;11.583333333333334;10.983333333333333;
46381;PMS5003;66809;52.974;-2.514;2023-09-18T06:29:39;11.583333333333334;10.983333333333333;
46381;PMS5003;66809;52.974;-2.514;2023-09-18T06:31:40;11.566666666666666;10.966666666666667;
46381;PMS5003;66809;52.974;-2.514;2023-09-18T06:33:39;11.566666666666666;11.016666666666667;
46381;PMS5003;66809;52.974;-2.514;2023-09-18T06:35:39;11.433333333333334;10.9;
46381;PMS5003;66809;52.974;-2.514;2023-09-18T06:37:40;11.25;10.733333333333333;
46381;PMS5003;66809;52.974;-2.514;2023-09-18T06:39:40;11.2;10.7;
46381;PMS5003;66809;52.974;-2.514;2023-09-18T06:41:39;11.116666666666667;10.616666666666667;
46381;PMS5003;66809;52.974;-2.514;2023-09-18T06:43:40;11.066666666666666;10.6;
46381;PMS5003;66809;52.974;-2.514;2023-09-18T06:45:39;11.066666666666666;10.566666666666666;
46381;PMS5003;66809;52.974;-2.514;2023-09-18T06:47:40;10.966666666666667;10.466666666666667;
46381;PMS5003;66809;52.974;-2.514;2023-09-18T06:49:40;10.833333333333334;10.4;
46381;PMS5003;66809;52.974;-2.514;2023-09-18T06:51:39;10.816666666666666;10.383333333333333;
46381;PMS5003;66809;52.974;-2.514;2023-09-18T06:53:40;10.85;10.35;
46381;PMS5003;66809;52.974;-2.514;2023-09-18T06:55:40;10.8;10.316666666666666;
46381;PMS5003;66809;52.974;-2.514;2023-09-18T06:57:39;10.766666666666667;10.283333333333333;
46381;PMS5003;66809;52.974;-2.514;2023-09-18T06:59:40;10.716666666666667;10.266666666666667;
46381;PMS5003;66809;52.974;-2.514;2023-09-18T07:01:39;10.6;10.166666666666666;
46381;PMS5003;66809;52.974;-2.514;2023-09-18T07:03:39;10.533333333333333;10.066666666666666;
46381;PMS5003;66809;52.974;-2.514;2023-09-18T07:05:40;10.45;10.0;
46381;PMS5003;66809;52.974;-2.514;2023-09-18T07:07:39;10.483333333333333;10.016666666666667;
46381;PMS5003;66809;52.974;-2.514;2023-09-18T07:09:40;10.35;9.916666666666666;
46381;PMS5003;66809;52.974;-2.514;2023-09-18T07:11:40;10.35;9.916666666666666;
46381;PMS5003;66809;52.974;-2.514;2023-09-18T07:13:39;10.35;9.883333333333333;
46381;PMS5003;66809;52.974;-2.514;2023-09-18T07:15:39;10.283333333333333;9.833333333333334;
46381;PMS5003;66809;52.974;-2.514;2023-09-18T07:17:40;10.183333333333334;9.733333333333333;
46381;PMS5003;66809;52.974;-2.514;2023-09-18T07:19:39;10.083333333333334;9.6;
46381;PMS5003;66809;52.974;-2.514;2023-09-18T07:21:39;9.95;9.483333333333333;
46381;PMS5003;66809;52.974;-2.514;2023-09-18T07:23:39;9.683333333333334;9.2;
46381;PMS5003;66809;52.974;-2.514;2023-09-18T07:25:39;9.5;9.0;
46381;PMS5003;66809;52.974;-2.514;2023-09-18T07:27:40;9.416666666666666;8.916666666666666;
46381;PMS5003;66809;52.974;-2.514;2023-09-18T07:29:39;9.283333333333333;8.733333333333333;
46381;PMS5003;66809;52.974;-2.514;2023-09-18T07:31:39;9.15;8.566666666666666;
46381;PMS5003;66809;52.974;-2.514;2023-09-18T07:33:40;9.0;8.4;
46381;PMS5003;66809;52.974;-2.514;2023-09-18T07:35:40;8.866666666666667;8.216666666666667;
46381;PMS5003;66809;52.974;-2.514;2023-09-18T07:37:39;8.85;8.166666666666666;
46381;PMS5003;66809;52.974;-2.514;2023-09-18T07:39:40;8.666666666666666;8.0;
46381;PMS5003;66809;52.974;-2.514;2023-09-18T07:41:40;8.616666666666667;7.85;
46381;PMS5003;66809;52.974;-2.514;2023-09-18T07:43:39;8.45;7.633333333333334;
46381;PMS5003;66809;52.974;-2.514;2023-09-18T07:45:40;8.283333333333333;7.466666666666667;
46381;PMS5003;66809;52.974;-2.514;2023-09-18T07:47:39;8.2;7.35;
46381;PMS5003;66809;52.974;-2.514;2023-09-18T07:49:39;8.116666666666667;7.266666666666667;
46381;PMS5003;66809;52.974;-2.514;2023-09-18T07:51:40;8.0;7.116666666666666;
46381;PMS5003;66809;52.974;-2.514;2023-09-18T07:53:39;7.833333333333333;7.016666666666667;
46381;PMS5003;66809;52.974;-2.514;2023-09-18T07:55:40;7.716666666666667;6.9;
46381;PMS5003;66809;52.974;-2.514;2023-09-18T07:57:39;7.566666666666666;6.766666666666667;
46381;PMS5003;66809;52.974;-2.514;2023-09-18T07:59:39;7.45;6.616666666666666;
46381;PMS5003;66809;52.974;-2.514;2023-09-18T08:01:40;7.3;6.466666666666667;
46381;PMS5003;66809;52.974;-2.514;2023-09-18T08:03:40;7.15;6.3;
46381;PMS5003;66809;52.974;-2.514;2023-09-18T08:05:40;6.933333333333334;6.083333333333333;
46381;PMS5003;66809;52.974;-2.514;2023-09-18T08:07:39;6.7;5.883333333333334;
46381;PMS5003;66809;52.974;-2.514;2023-09-18T08:09:40;6.5;5.7;
46381;PMS5003;66809;52.974;-2.514;2023-09-18T08:11:39;6.316666666666666;5.516666666666667;
46381;PMS5003;66809;52.974;-2.514;2023-09-18T08:13:40;6.15;5.35;
46381;PMS5003;66809;52.974;-2.514;2023-09-18T08:15:39;5.983333333333333;5.183333333333334;
46381;PMS5003;66809;52.974;-2.514;2023-09-18T08:17:40;5.866666666666666;5.066666666666666;
46381;PMS5003;66809;52.974;-2.514;2023-09-18T08:19:39;5.883333333333334;5.05;
46381;PMS5003;66809;52.974;-2.514;2023-09-18T08:21:39;5.833333333333333;4.966666666666667;
46381;PMS5003;66809;52.974;-2.514;2023-09-18T08:23:40;5.816666666666666;4.9;
46381;PMS5003;66809;52.974;-2.514;2023-09-18T08:25:39;5.783333333333333;4.85;
46381;PMS5003;66809;52.974;-2.514;2023-09-18T08:27:40;5.7;4.716666666666667;
46381;PMS5003;66809;52.974;-2.514;2023-09-18T08:29:40;5.666666666666667;4.7;
46381;PMS5003;66809;52.974;-2.514;2023-09-18T08:31:39;5.533333333333333;4.6;
46381;PMS5003;66809;52.974;-2.514;2023-09-18T08:33:40;5.416666666666667;4.483333333333333;
46381;PMS5003;66809;52.974;-2.514;2023-09-18T08:35:39;5.416666666666667;4.45;
46381;PMS5003;66809;52.974;-2.514;2023-09-18T08:37:40;5.333333333333333;4.35;
46381;PMS5003;66809;52.974;-2.514;2023-09-18T08:39:40;5.266666666666667;4.283333333333333;
46381;PMS5003;66809;52.974;-2.514;2023-09-18T08:41:41;5.133333333333334;4.233333333333333;
46381;PMS5003;66809;52.974;-2.514;2023-09-18T08:43:40;4.983333333333333;4.133333333333334;
46381;PMS5003;66809;52.974;-2.514;2023-09-18T08:45:42;4.916666666666667;4.1;
46381;PMS5003;66809;52.974;-2.514;2023-09-18T08:47:39;4.816666666666666;4.0;
46381;PMS5003;66809;52.974;-2.514;2023-09-18T08:49:40;4.683333333333334;3.8666666666666667;
46381;PMS5003;66809;52.974;-2.514;2023-09-18T08:51:40;4.55;3.783333333333333;
46381;PMS5003;66809;52.974;-2.514;2023-09-18T08:53:40;4.516666666666667;3.75;
46381;PMS5003;66809;52.974;-2.514;2023-09-18T08:55:39;4.483333333333333;3.6666666666666665;
46381;PMS5003;66809;52.974;-2.514;2023-09-18T08:57:39;4.383333333333334;3.566666666666667;
46381;PMS5003;66809;52.974;-2.514;2023-09-18T08:59:39;4.25;3.45;
46381;PMS5003;66809;52.974;-2.514;2023-09-18T09:01:40;4.233333333333333;3.4;
46381;PMS5003;66809;52.974;-2.514;2023-09-18T09:03:40;4.15;3.35;
46381;PMS5003;66809;52.974;-2.514;2023-09-18T09:05:40;4.133333333333334;3.316666666666667;
46381;PMS5003;66809;52.974;-2.514;2023-09-18T09:07:40;4.1;3.283333333333333;
46381;PMS5003;66809;52.974;-2.514;2023-09-18T09:09:40;4.016666666666667;3.183333333333333;
46381;PMS5003;66809;52.974;-2.514;2023-09-18T09:11:40;3.9166666666666665;3.1;
46381;PMS5003;66809;52.974;-2.514;2023-09-18T09:13:40;3.8;3.0166666666666666;
46381;PMS5003;66809;52.974;-2.514;2023-09-18T09:15:43;3.7;2.9166666666666665;
46381;PMS5003;66809;52.974;-2.514;2023-09-18T09:17:39;3.6666666666666665;2.8833333333333333;
46381;PMS5003;66809;52.974;-2.514;2023-09-18T09:19:39;3.55;2.7666666666666666;
46381;PMS5003;66809;52.974;-2.514;2023-09-18T09:21:39;3.466666666666667;2.716666666666667;
46381;PMS5003;66809;52.974;-2.514;2023-09-18T09:23:48;3.3666666666666667;2.683333333333333;
46381;PMS5003;66809;52.974;-2.514;2023-09-18T09:25:40;3.35;2.6666666666666665;
46381;PMS5003;66809;52.974;-2.514;2023-09-18T09:27:42;3.3333333333333335;2.65;
46381;PMS5003;66809;52.974;-2.514;2023-09-18T09:29:40;3.316666666666667;2.6333333333333333;
46381;PMS5003;66809;52.974;-2.514;2023-09-18T09:31:40;3.3666666666666667;2.6666666666666665;
46381;PMS5003;66809;52.974;-2.514;2023-09-18T09:33:40;3.35;2.683333333333333;
46381;PMS5003;66809;52.974;-2.514;2023-09-18T09:35:40;3.216666666666667;2.6166666666666667;